Time;durP1;ratioP1;P1;durP2;ratioP2;P2;SDS_P1;SDS_P2;PMS_P1;PMS_P2;Temp;Humidity;BMP_temperature;BMP_pressure;BME280_temperature;BME280_humidity;BME280_pressure;Samples;Min_cycle;Max_cycle;Signal;HPM_P1;HPM_P2
2023/08/27 00:01:07;;;;;;;8.45;4.70;;;15.40;99.90;;;;;;6157541;23;20017;-85
2023/08/27 00:03:33;;;;;;;11.18;4.75;;;15.40;99.90;;;;;;6132190;23;20021;-85
2023/08/27 00:05:58;;;;;;;9.80;5.13;;;15.30;99.90;;;;;;6157069;23;20016;-85
2023/08/27 00:08:24;;;;;;;8.13;4.50;;;15.30;99.90;;;;;;6156472;23;20546;-86
2023/08/27 00:10:49;;;;;;;9.30;7.40;;;15.20;99.90;;;;;;6132271;23;20041;-86
2023/08/27 00:13:15;;;;;;;11.88;8.70;;;15.30;99.90;;;;;;6157012;23;20016;-86
2023/08/27 00:15:47;;;;;;;10.82;7.13;;;15.30;99.90;;;;;;6156351;23;20313;-85
2023/08/27 00:18:13;;;;;;;8.73;4.90;;;15.40;99.90;;;;;;6131070;23;20344;-86
2023/08/27 00:20:41;;;;;;;11.68;7.93;;;15.30;99.90;;;;;;6130935;23;20017;-86
2023/08/27 00:23:10;;;;;;;8.65;4.35;;;15.30;99.90;;;;;;6129858;23;20024;-85
2023/08/27 00:25:37;;;;;;;11.00;6.85;;;15.20;99.90;;;;;;6155379;23;20063;-86
2023/08/27 00:28:03;;;;;;;9.70;4.50;;;15.20;99.90;;;;;;6155690;23;20017;-83
2023/08/27 00:30:28;;;;;;;8.93;5.18;;;15.20;99.90;;;;;;6156445;23;20354;-84
2023/08/27 00:32:54;;;;;;;9.88;7.28;;;15.10;99.90;;;;;;6155765;23;20413;-84
2023/08/27 00:35:20;;;;;;;10.13;8.13;;;15.20;99.90;;;;;;6132465;23;20020;-84
2023/08/27 00:37:45;;;;;;;12.70;5.15;;;15.20;99.90;;;;;;6156178;23;20455;-83
2023/08/27 00:40:11;;;;;;;10.82;7.35;;;15.20;99.90;;;;;;6157269;23;20013;-83
2023/08/27 00:42:37;;;;;;;12.65;7.35;;;15.20;99.90;;;;;;6156539;23;20016;-83
2023/08/27 00:45:03;;;;;;;9.75;5.00;;;15.20;99.90;;;;;;6154993;23;20044;-83
2023/08/27 00:47:30;;;;;;;9.20;5.05;;;15.20;99.90;;;;;;6155133;23;20013;-84
2023/08/27 00:49:56;;;;;;;10.70;7.80;;;15.10;99.90;;;;;;6155072;23;20536;-83
2023/08/27 00:52:23;;;;;;;8.77;4.28;;;15.20;99.90;;;;;;6130699;23;20009;-83
2023/08/27 00:54:50;;;;;;;10.65;7.45;;;15.10;99.90;;;;;;6156012;23;20019;-84
2023/08/27 00:57:18;;;;;;;9.60;5.05;;;15.20;99.90;;;;;;6155822;23;20450;-83
2023/08/27 00:59:45;;;;;;;8.00;4.50;;;15.20;99.90;;;;;;6131966;23;20013;-83
2023/08/27 01:02:11;;;;;;;8.75;4.68;;;15.10;99.90;;;;;;6155884;23;20139;-83
2023/08/27 01:04:37;;;;;;;9.85;7.68;;;15.10;99.90;;;;;;6132177;23;20045;-83
2023/08/27 01:07:14;;;;;;;7.85;4.20;;;15.10;99.90;;;;;;6155765;23;20013;-83
2023/08/27 01:09:51;;;;;;;9.32;7.32;;;15.10;99.90;;;;;;6130654;23;20009;-83
2023/08/27 01:12:28;;;;;;;10.70;4.95;;;15.20;99.90;;;;;;6155333;23;20084;-84
2023/08/27 01:14:55;;;;;;;10.20;5.00;;;15.10;99.90;;;;;;6156148;23;20084;-83
2023/08/27 01:17:22;;;;;;;10.02;8.15;;;15.10;99.90;;;;;;6155618;23;20044;-83
2023/08/27 01:19:49;;;;;;;10.82;7.22;;;15.20;99.90;;;;;;6156750;23;20479;-83
2023/08/27 01:22:16;;;;;;;8.27;3.88;;;15.20;99.90;;;;;;6155302;23;20024;-83
2023/08/27 01:24:41;;;;;;;9.15;7.22;;;15.20;99.90;;;;;;6155559;23;20454;-83
2023/08/27 01:27:16;;;;;;;10.00;7.05;;;15.20;99.90;;;;;;6156530;23;20047;-83
2023/08/27 01:30:06;;;;;;;11.15;4.65;;;15.20;99.90;;;;;;6182512;23;20343;-84
2023/08/27 01:32:51;;;;;;;8.98;4.32;;;15.20;99.90;;;;;;6156753;23;20467;-83
2023/08/27 01:35:17;;;;;;;7.20;3.35;;;15.10;99.90;;;;;;6156426;23;20016;-85
2023/08/27 01:37:43;;;;;;;9.15;4.45;;;15.10;99.90;;;;;;6156811;23;20354;-85
2023/08/27 01:40:09;;;;;;;8.77;4.28;;;15.10;99.90;;;;;;6158256;23;20092;-85
2023/08/27 01:42:38;;;;;;;8.30;6.25;;;15.10;99.90;;;;;;6132993;23;20459;-85
2023/08/27 01:45:06;;;;;;;8.85;4.07;;;15.10;99.90;;;;;;6157898;23;20120;-85
2023/08/27 01:47:32;;;;;;;10.38;6.55;;;15.10;99.90;;;;;;6158126;23;20017;-85
2023/08/27 01:49:58;;;;;;;8.32;4.35;;;15.10;99.90;;;;;;6132270;23;20427;-85
2023/08/27 01:52:23;;;;;;;8.40;4.20;;;15.10;99.90;;;;;;6133053;23;20479;-85
2023/08/27 01:54:49;;;;;;;10.82;6.22;;;15.10;99.90;;;;;;6157778;23;20012;-85
2023/08/27 01:57:14;;;;;;;9.48;6.38;;;15.10;99.90;;;;;;6157939;23;20404;-85
2023/08/27 01:59:40;;;;;;;8.55;3.65;;;15.10;99.90;;;;;;6133030;23;20124;-85
2023/08/27 02:02:06;;;;;;;8.85;3.75;;;15.10;99.90;;;;;;6132979;23;20394;-85
2023/08/27 02:04:31;;;;;;;9.57;6.85;;;15.00;99.90;;;;;;6157203;23;20015;-85
2023/08/27 02:06:57;;;;;;;9.50;6.75;;;15.00;99.90;;;;;;6157944;23;20616;-85
2023/08/27 02:09:23;;;;;;;9.43;4.10;;;15.10;99.90;;;;;;6157262;23;20013;-85
2023/08/27 02:11:49;;;;;;;7.72;4.38;;;15.00;99.90;;;;;;6158059;23;20485;-85
2023/08/27 02:14:15;;;;;;;10.65;6.85;;;14.90;99.90;;;;;;6157539;23;20009;-85
2023/08/27 02:16:41;;;;;;;10.80;6.38;;;15.00;99.90;;;;;;6157369;23;20005;-86
2023/08/27 02:19:07;;;;;;;11.52;6.75;;;15.00;99.90;;;;;;6157375;23;20036;-85
2023/08/27 02:21:32;;;;;;;8.75;3.78;;;15.00;99.90;;;;;;6133098;23;20477;-85
2023/08/27 02:23:58;;;;;;;8.63;4.18;;;14.90;99.90;;;;;;6157191;23;20068;-85
2023/08/27 02:26:23;;;;;;;7.47;4.20;;;14.90;99.90;;;;;;6158238;23;20379;-86
2023/08/27 02:28:49;;;;;;;9.63;6.70;;;14.80;99.90;;;;;;6157003;23;20099;-85
2023/08/27 02:31:15;;;;;;;9.80;6.60;;;14.90;99.90;;;;;;6157388;23;20071;-85
2023/08/27 02:33:40;;;;;;;9.63;6.43;;;14.90;99.90;;;;;;6183665;23;20351;-85
2023/08/27 02:36:06;;;;;;;9.10;6.90;;;14.90;99.90;;;;;;6157990;23;20015;-85
2023/08/27 02:38:33;;;;;;;9.63;7.55;;;14.90;99.90;;;;;;6157680;23;20093;-85
2023/08/27 02:40:58;;;;;;;8.07;3.70;;;14.90;99.90;;;;;;6158053;23;20439;-85
2023/08/27 02:43:24;;;;;;;10.43;4.00;;;14.80;99.90;;;;;;6132472;23;20053;-85
2023/08/27 02:45:50;;;;;;;9.75;6.53;;;14.80;99.90;;;;;;6156962;23;20359;-85
2023/08/27 02:48:16;;;;;;;8.73;3.90;;;14.80;99.90;;;;;;6156705;23;20041;-85
2023/08/27 02:50:41;;;;;;;8.13;3.90;;;14.70;99.90;;;;;;6131921;23;20109;-86
2023/08/27 02:53:07;;;;;;;8.20;6.28;;;14.70;99.90;;;;;;6157366;23;20005;-85
2023/08/27 02:55:33;;;;;;;9.15;3.63;;;14.70;99.90;;;;;;6157161;23;20354;-85
2023/08/27 02:57:59;;;;;;;9.15;6.68;;;14.70;99.90;;;;;;6156480;23;20035;-85
2023/08/27 03:00:25;;;;;;;7.32;3.30;;;14.70;99.90;;;;;;6156981;23;20021;-85
2023/08/27 03:02:51;;;;;;;10.60;7.00;;;14.70;99.90;;;;;;6131704;23;20012;-85
2023/08/27 03:05:17;;;;;;;9.00;6.50;;;14.70;99.90;;;;;;6156541;23;20131;-85
2023/08/27 03:07:43;;;;;;;9.18;6.38;;;14.80;99.90;;;;;;6156702;23;20025;-86
2023/08/27 03:10:09;;;;;;;6.82;3.67;;;14.80;99.90;;;;;;6156883;23;20019;-85
2023/08/27 03:12:35;;;;;;;8.98;6.18;;;14.70;99.90;;;;;;6132611;23;20009;-85
2023/08/27 03:15:00;;;;;;;7.57;3.80;;;14.70;99.90;;;;;;6157357;23;20063;-85
2023/08/27 03:17:26;;;;;;;7.50;3.35;;;14.70;99.90;;;;;;6132393;23;20009;-85
2023/08/27 03:19:52;;;;;;;7.70;3.47;;;14.60;99.90;;;;;;6131773;23;20009;-85
2023/08/27 03:22:17;;;;;;;8.50;6.03;;;14.60;99.90;;;;;;6132691;23;20009;-85
2023/08/27 03:24:43;;;;;;;8.38;6.47;;;14.60;99.90;;;;;;6157200;23;20013;-85
2023/08/27 03:27:09;;;;;;;9.48;6.22;;;14.70;99.90;;;;;;6133613;23;20098;-85
2023/08/27 03:29:34;;;;;;;7.45;3.40;;;14.70;99.90;;;;;;6157300;23;20084;-85
2023/08/27 03:32:00;;;;;;;7.85;3.63;;;14.70;99.90;;;;;;6131801;23;20013;-85
2023/08/27 03:34:25;;;;;;;7.97;5.85;;;14.60;99.90;;;;;;6156993;23;20071;-86
2023/08/27 03:36:51;;;;;;;7.43;3.55;;;14.70;99.90;;;;;;6132402;23;20013;-85
2023/08/27 03:39:17;;;;;;;7.50;3.47;;;14.70;99.90;;;;;;6157147;23;20013;-85
2023/08/27 03:41:42;;;;;;;8.10;3.72;;;14.60;99.90;;;;;;6132422;23;20108;-85
2023/08/27 03:44:08;;;;;;;8.18;3.67;;;14.60;99.90;;;;;;6156767;23;20039;-85
2023/08/27 03:46:33;;;;;;;9.02;5.55;;;14.60;99.90;;;;;;6157013;23;20051;-85
2023/08/27 03:49:04;;;;;;;8.02;3.05;;;14.70;99.90;;;;;;6132803;23;20017;-85
2023/08/27 03:51:29;;;;;;;8.23;6.05;;;14.60;99.90;;;;;;6156572;23;20088;-85
2023/08/27 03:53:59;;;;;;;7.72;3.83;;;14.60;99.90;;;;;;6131925;23;20041;-86
2023/08/27 03:56:25;;;;;;;7.75;5.35;;;14.60;99.90;;;;;;6156522;23;20031;-85
2023/08/27 03:58:51;;;;;;;7.70;3.67;;;14.60;99.90;;;;;;6156545;23;20463;-85
2023/08/27 04:01:16;;;;;;;10.93;5.85;;;14.60;99.90;;;;;;6156451;23;20474;-85
2023/08/27 04:03:43;;;;;;;9.20;3.75;;;14.60;99.90;;;;;;6156687;23;20398;-85
2023/08/27 04:06:12;;;;;;;7.35;3.55;;;14.60;99.90;;;;;;6132323;23;20013;-86
2023/08/27 04:08:38;;;;;;;7.15;3.42;;;14.60;99.90;;;;;;6132500;23;20064;-85
2023/08/27 04:11:04;;;;;;;8.82;3.55;;;14.50;99.90;;;;;;6131834;23;20020;-85
2023/08/27 04:13:30;;;;;;;7.50;3.60;;;14.50;99.90;;;;;;6157156;23;20479;-85
2023/08/27 04:16:01;;;;;;;8.85;5.82;;;14.50;99.90;;;;;;6132687;23;20013;-85
2023/08/27 04:18:27;;;;;;;8.45;3.60;;;14.60;99.90;;;;;;6132062;23;20005;-85
2023/08/27 04:20:53;;;;;;;10.02;3.90;;;14.60;99.90;;;;;;6156506;23;20350;-86
2023/08/27 04:23:19;;;;;;;8.63;5.40;;;14.60;99.90;;;;;;6155196;23;20064;-85
2023/08/27 04:25:45;;;;;;;9.90;5.80;;;14.60;99.90;;;;;;6132369;23;20013;-85
2023/08/27 04:28:10;;;;;;;9.43;5.90;;;14.60;99.90;;;;;;6132604;23;20458;-86
2023/08/27 04:30:37;;;;;;;8.00;3.50;;;14.70;99.90;;;;;;6131948;23;20445;-85
2023/08/27 04:33:05;;;;;;;10.40;3.72;;;14.60;99.90;;;;;;6132029;23;20328;-85
2023/08/27 04:35:31;;;;;;;6.57;3.35;;;14.60;99.90;;;;;;6156881;23;20024;-85
2023/08/27 04:37:57;;;;;;;8.13;5.18;;;14.60;99.90;;;;;;6156652;23;20016;-85
2023/08/27 04:40:22;;;;;;;7.53;3.85;;;14.60;99.90;;;;;;6156949;23;20354;-85
2023/08/27 04:42:48;;;;;;;7.57;3.38;;;14.60;99.90;;;;;;6131378;23;20013;-85
2023/08/27 04:45:14;;;;;;;9.40;5.80;;;14.50;99.90;;;;;;6156379;23;20458;-85
2023/08/27 04:47:40;;;;;;;8.30;3.80;;;14.60;99.90;;;;;;6156884;23;20017;-85
2023/08/27 04:50:07;;;;;;;8.25;3.80;;;14.60;99.90;;;;;;6155938;23;20013;-85
2023/08/27 04:52:34;;;;;;;9.85;6.20;;;14.60;99.90;;;;;;6132005;23;20124;-85
2023/08/27 04:55:00;;;;;;;7.47;3.95;;;14.60;99.90;;;;;;6156605;23;20009;-85
2023/08/27 04:57:25;;;;;;;10.05;6.07;;;14.60;99.90;;;;;;6156787;23;20455;-85
2023/08/27 04:59:51;;;;;;;8.65;4.80;;;14.60;99.90;;;;;;6156834;23;20013;-85
2023/08/27 05:02:16;;;;;;;9.65;7.35;;;14.60;99.90;;;;;;6156629;23;20342;-85
2023/08/27 05:04:43;;;;;;;9.50;7.38;;;14.60;99.90;;;;;;6156196;23;20506;-85
2023/08/27 05:07:10;;;;;;;10.23;7.57;;;14.60;99.90;;;;;;6132408;23;20010;-85
2023/08/27 05:09:36;;;;;;;10.65;8.27;;;14.60;99.90;;;;;;6156660;23;20443;-85
2023/08/27 05:12:02;;;;;;;8.65;4.10;;;14.70;99.90;;;;;;6157871;23;20009;-85
2023/08/27 05:14:27;;;;;;;8.45;4.55;;;14.60;99.90;;;;;;6158192;23;20062;-85
2023/08/27 05:16:53;;;;;;;10.68;7.88;;;14.60;99.90;;;;;;6158632;23;20359;-85
2023/08/27 05:19:18;;;;;;;12.35;8.20;;;14.60;99.90;;;;;;6157977;23;20009;-85
2023/08/27 05:21:44;;;;;;;10.25;5.25;;;14.70;99.90;;;;;;6133751;23;20071;-85
2023/08/27 05:24:09;;;;;;;8.60;4.35;;;14.60;99.90;;;;;;6157805;23;20019;-85
2023/08/27 05:26:35;;;;;;;10.85;7.68;;;14.60;99.90;;;;;;6157955;23;20455;-85
2023/08/27 05:29:01;;;;;;;8.52;4.43;;;14.70;99.90;;;;;;6158569;23;20099;-85
2023/08/27 05:31:26;;;;;;;12.93;8.25;;;14.70;99.90;;;;;;6133858;23;20021;-85
2023/08/27 05:33:52;;;;;;;8.63;4.78;;;14.70;99.90;;;;;;6158517;23;20540;-85
2023/08/27 05:36:18;;;;;;;8.63;4.47;;;14.70;99.90;;;;;;6158337;23;20016;-85
2023/08/27 05:38:43;;;;;;;9.75;8.02;;;14.60;99.90;;;;;;6133600;23;20009;-85
2023/08/27 05:41:09;;;;;;;11.15;8.38;;;14.70;99.90;;;;;;6134193;23;20045;-85
2023/08/27 05:43:35;;;;;;;9.98;4.43;;;14.80;99.90;;;;;;6158086;23;20562;-85
2023/08/27 05:46:00;;;;;;;10.27;8.93;;;14.80;99.90;;;;;;6184504;23;20013;-85
2023/08/27 05:48:26;;;;;;;10.43;8.10;;;14.80;99.90;;;;;;6158507;23;20013;-85
2023/08/27 05:50:51;;;;;;;8.35;4.00;;;14.80;99.90;;;;;;6158269;23;20068;-85
2023/08/27 05:53:17;;;;;;;11.90;8.23;;;14.80;99.90;;;;;;6157829;23;20013;-85
2023/08/27 05:55:46;;;;;;;11.63;8.43;;;14.80;99.90;;;;;;6158146;23;20084;-86
2023/08/27 05:58:11;;;;;;;11.68;8.05;;;14.80;99.90;;;;;;6133840;23;20009;-85
2023/08/27 06:00:37;;;;;;;9.07;3.88;;;14.80;99.90;;;;;;6134131;23;20023;-85
2023/08/27 06:03:04;;;;;;;9.30;3.47;;;14.80;99.90;;;;;;6158365;23;20013;-85
2023/08/27 06:05:30;;;;;;;15.75;8.10;;;14.70;99.90;;;;;;6158090;23;20017;-85
2023/08/27 06:07:55;;;;;;;7.45;3.13;;;14.70;99.90;;;;;;6158113;23;20083;-85
2023/08/27 06:10:21;;;;;;;8.90;3.58;;;14.70;99.90;;;;;;6133410;23;20473;-85
2023/08/27 06:12:46;;;;;;;11.13;8.35;;;14.60;99.90;;;;;;6158089;23;20454;-85
2023/08/27 06:15:12;;;;;;;11.18;4.55;;;14.60;99.90;;;;;;6157697;23;20005;-85
2023/08/27 06:17:38;;;;;;;10.77;7.70;;;14.60;99.90;;;;;;6157717;23;20064;-85
2023/08/27 06:20:05;;;;;;;7.00;2.92;;;14.60;99.90;;;;;;6157529;23;20028;-85
2023/08/27 06:22:30;;;;;;;8.00;3.60;;;14.60;99.90;;;;;;6131562;23;20096;-85
2023/08/27 06:24:56;;;;;;;11.15;3.85;;;14.60;99.90;;;;;;6157384;23;20051;-85
2023/08/27 06:27:22;;;;;;;9.18;4.25;;;14.60;99.90;;;;;;6158054;23;20013;-85
2023/08/27 06:29:47;;;;;;;9.10;4.13;;;14.60;99.90;;;;;;6157789;23;20320;-86
2023/08/27 06:32:15;;;;;;;10.20;6.65;;;14.50;99.90;;;;;;6132833;23;20017;-85
2023/08/27 06:34:41;;;;;;;9.95;3.38;;;14.60;99.90;;;;;;6133810;23;20009;-86
2023/08/27 06:37:07;;;;;;;12.48;3.80;;;14.60;99.90;;;;;;6157663;23;20096;-85
2023/08/27 06:39:32;;;;;;;11.45;6.88;;;14.60;99.90;;;;;;6157445;23;20012;-85
2023/08/27 06:41:58;;;;;;;8.98;6.53;;;14.60;99.90;;;;;;6157786;23;20032;-85
2023/08/27 06:44:23;;;;;;;8.35;4.13;;;14.60;99.90;;;;;;6132554;23;20021;-85
2023/08/27 06:46:49;;;;;;;8.60;3.55;;;14.60;99.90;;;;;;6157171;23;20044;-85
2023/08/27 06:49:15;;;;;;;10.85;8.02;;;14.60;99.90;;;;;;6157931;23;20065;-85
2023/08/27 06:51:41;;;;;;;11.45;7.45;;;14.60;99.90;;;;;;6183792;23;20068;-86
2023/08/27 06:54:07;;;;;;;7.30;3.45;;;14.70;99.90;;;;;;6159189;23;20005;-85
2023/08/27 06:56:33;;;;;;;10.10;3.80;;;14.70;99.90;;;;;;6157847;23;20009;-85
2023/08/27 06:58:58;;;;;;;10.40;6.40;;;14.60;99.90;;;;;;6158614;23;20088;-85
2023/08/27 07:01:24;;;;;;;10.70;6.85;;;14.70;99.90;;;;;;6134176;23;20431;-86
2023/08/27 07:03:50;;;;;;;7.97;3.55;;;14.70;99.90;;;;;;6133405;23;20017;-85
2023/08/27 07:06:16;;;;;;;11.75;8.23;;;14.70;99.90;;;;;;6158172;23;20096;-85
2023/08/27 07:08:41;;;;;;;7.40;3.40;;;14.80;99.90;;;;;;6133134;23;20012;-85
2023/08/27 07:11:07;;;;;;;7.72;3.60;;;14.70;99.90;;;;;;6157226;23;20013;-85
2023/08/27 07:13:33;;;;;;;7.75;3.53;;;14.70;99.90;;;;;;6132578;23;20016;-85
2023/08/27 07:15:58;;;;;;;9.45;6.68;;;14.70;99.90;;;;;;6157534;23;20005;-85
2023/08/27 07:18:24;;;;;;;11.48;6.47;;;14.70;99.90;;;;;;6155760;23;20455;-86
2023/08/27 07:20:51;;;;;;;8.70;4.13;;;14.80;99.90;;;;;;6183430;23;20031;-85
2023/08/27 07:23:17;;;;;;;8.98;6.40;;;14.80;99.90;;;;;;6132392;23;20088;-85
2023/08/27 07:25:43;;;;;;;10.43;3.72;;;14.80;99.90;;;;;;6132114;23;20051;-85
2023/08/27 07:28:09;;;;;;;10.18;6.68;;;14.80;99.90;;;;;;6157301;23;20552;-85
2023/08/27 07:30:36;;;;;;;7.63;3.40;;;14.90;99.90;;;;;;6133020;23;20025;-86
2023/08/27 07:33:02;;;;;;;11.13;3.08;;;14.90;99.90;;;;;;6157736;23;20454;-86
2023/08/27 07:35:29;;;;;;;9.32;6.70;;;14.90;99.90;;;;;;6156431;23;20056;-86
2023/08/27 07:37:55;;;;;;;9.43;6.25;;;15.00;99.90;;;;;;6156318;23;20016;-86
2023/08/27 07:40:20;;;;;;;6.93;2.42;;;15.10;99.90;;;;;;6132252;23;20013;-85
2023/08/27 07:42:46;;;;;;;7.32;2.45;;;15.10;99.90;;;;;;6157383;23;20013;-86
2023/08/27 07:45:12;;;;;;;7.00;3.20;;;15.10;99.90;;;;;;6132253;23;20362;-86
2023/08/27 07:47:37;;;;;;;9.05;4.38;;;15.20;99.90;;;;;;6157562;23;20072;-86
2023/08/27 07:50:06;;;;;;;7.65;3.80;;;15.30;99.90;;;;;;6157636;23;20027;-86
2023/08/27 07:52:31;;;;;;;6.75;2.97;;;15.40;99.90;;;;;;6132832;23;20009;-86
2023/08/27 07:54:57;;;;;;;5.32;1.70;;;15.40;99.90;;;;;;6132723;23;20009;-86
2023/08/27 07:57:23;;;;;;;4.30;1.80;;;15.40;99.90;;;;;;6157607;23;20013;-86
2023/08/27 07:59:51;;;;;;;5.57;2.70;;;15.40;99.90;;;;;;6157261;23;20067;-86
2023/08/27 08:02:16;;;;;;;5.30;1.83;;;15.40;99.90;;;;;;6157830;23;20085;-86
2023/08/27 08:04:42;;;;;;;6.22;2.58;;;15.40;99.90;;;;;;6157627;23;20068;-86
2023/08/27 08:07:09;;;;;;;6.40;2.67;;;15.40;99.90;;;;;;6157555;23;20109;-86
2023/08/27 08:09:35;;;;;;;6.22;2.63;;;15.50;99.90;;;;;;6157601;23;20044;-86
2023/08/27 08:12:00;;;;;;;6.65;2.55;;;15.50;99.90;;;;;;6132732;23;20059;-85
2023/08/27 08:14:26;;;;;;;6.40;1.83;;;15.60;99.90;;;;;;6133199;23;20009;-86
2023/08/27 08:16:53;;;;;;;4.85;1.95;;;15.50;99.90;;;;;;6157233;23;20017;-86
2023/08/27 08:19:19;;;;;;;7.25;2.97;;;15.50;99.90;;;;;;6156978;23;20013;-87
2023/08/27 08:21:45;;;;;;;5.93;2.10;;;15.50;99.90;;;;;;6156329;23;20116;-85
2023/08/27 08:24:11;;;;;;;6.82;3.17;;;15.60;99.90;;;;;;6156511;23;20013;-85
2023/08/27 08:26:36;;;;;;;7.25;2.83;;;15.60;99.90;;;;;;6156880;23;20017;-85
2023/08/27 08:29:02;;;;;;;5.78;1.75;;;15.80;99.90;;;;;;6157710;23;20517;-85
2023/08/27 08:31:28;;;;;;;7.30;3.22;;;15.80;99.90;;;;;;6157628;23;20020;-85
2023/08/27 08:33:53;;;;;;;5.43;2.15;;;15.90;99.90;;;;;;6157885;23;20031;-85
2023/08/27 08:36:19;;;;;;;6.47;3.25;;;16.00;99.90;;;;;;6132602;23;20458;-85
2023/08/27 08:38:45;;;;;;;6.47;2.15;;;16.00;99.90;;;;;;6132734;23;20111;-86
2023/08/27 08:41:13;;;;;;;6.57;2.60;;;16.10;99.90;;;;;;6156462;23;20354;-85
2023/08/27 08:43:44;;;;;;;5.88;1.88;;;16.20;99.90;;;;;;6156604;23;20405;-86
2023/08/27 08:46:13;;;;;;;8.13;3.20;;;16.30;99.90;;;;;;6156684;23;20017;-86
2023/08/27 08:48:42;;;;;;;8.43;2.58;;;16.40;99.90;;;;;;6157017;23;20048;-86
2023/08/27 08:51:12;;;;;;;8.02;3.40;;;16.40;99.90;;;;;;6131878;23;20009;-86
2023/08/27 08:54:03;;;;;;;7.05;3.08;;;16.40;99.90;;;;;;6156936;23;20020;-86
2023/08/27 08:56:36;;;;;;;6.35;2.38;;;16.60;99.90;;;;;;6131769;23;20475;-86
2023/08/27 08:59:03;;;;;;;;;;;16.60;99.90;;;;;;6133528;23;20498;-86
2023/08/27 09:01:29;;;;;;;7.55;3.50;;;16.60;99.90;;;;;;6132348;23;20373;-86
2023/08/27 09:03:56;;;;;;;8.70;3.38;;;16.70;99.90;;;;;;6132087;23;20469;-86
2023/08/27 09:06:23;;;;;;;9.18;3.88;;;16.80;99.90;;;;;;6156775;23;20020;-86
2023/08/27 09:08:50;;;;;;;8.45;4.07;;;16.90;99.90;;;;;;6132578;23;20036;-85
2023/08/27 09:11:22;;;;;;;8.32;4.03;;;17.00;99.90;;;;;;6132555;23;20023;-86
2023/08/27 09:13:48;;;;;;;4.97;2.03;;;17.10;99.90;;;;;;6157696;23;20092;-85
2023/08/27 09:16:13;;;;;;;7.90;2.78;;;17.00;99.90;;;;;;6157065;23;20041;-86
2023/08/27 09:18:39;;;;;;;8.32;4.22;;;17.00;99.90;;;;;;6156999;23;20009;-86
2023/08/27 09:21:06;;;;;;;8.65;4.47;;;17.20;99.90;;;;;;6132387;23;20039;-86
2023/08/27 09:23:37;;;;;;;8.70;4.72;;;17.30;99.90;;;;;;6157039;23;20453;-86
2023/08/27 09:26:06;;;;;;;8.88;4.63;;;17.40;99.90;;;;;;6156436;23;20048;-85
2023/08/27 09:28:35;;;;;;;8.43;4.22;;;17.60;99.90;;;;;;6131876;23;20481;-86
2023/08/27 09:31:04;;;;;;;6.82;2.75;;;17.70;99.90;;;;;;6157036;23;20068;-86
2023/08/27 09:33:39;;;;;;;9.32;2.58;;;17.70;99.90;;;;;;6155950;23;20455;-86
2023/08/27 09:36:05;;;;;;;9.90;4.38;;;17.60;99.90;;;;;;6131988;23;20090;-86
2023/08/27 09:38:32;;;;;;;7.95;3.40;;;17.70;99.90;;;;;;6131771;23;20414;-86
2023/08/27 09:41:15;;;;;;;8.25;4.60;;;17.70;99.90;;;;;;6156790;23;20035;-86
2023/08/27 09:43:51;;;;;;;9.82;4.90;;;17.70;99.90;;;;;;6131890;23;20021;-86
2023/08/27 09:46:17;;;;;;;7.95;3.67;;;17.80;99.90;;;;;;6131619;23;20359;-86
2023/08/27 09:48:42;;;;;;;10.65;4.70;;;18.00;99.90;;;;;;6157047;23;20040;-86
2023/08/27 09:51:09;;;;;;;8.75;4.25;;;18.10;99.90;;;;;;6132861;23;20020;-86
2023/08/27 09:53:35;;;;;;;8.52;4.15;;;18.10;99.90;;;;;;6132970;23;20013;-86
2023/08/27 09:56:03;;;;;;;8.45;3.53;;;18.10;99.90;;;;;;6132507;23;20387;-86
2023/08/27 09:58:29;;;;;;;8.25;3.88;;;18.10;99.90;;;;;;6132765;23;20009;-86
2023/08/27 10:01:03;;;;;;;8.15;3.65;;;18.20;99.90;;;;;;6158737;23;20015;-86
2023/08/27 10:03:29;;;;;;;7.75;3.70;;;18.20;99.90;;;;;;6134113;23;20009;-86
2023/08/27 10:05:54;;;;;;;8.70;4.00;;;18.10;99.90;;;;;;6158386;23;20481;-86
2023/08/27 10:08:20;;;;;;;10.82;4.40;;;18.10;99.90;;;;;;6158719;23;20013;-86
2023/08/27 10:10:46;;;;;;;7.97;3.50;;;18.20;99.90;;;;;;6134373;23;20013;-86
2023/08/27 10:13:14;;;;;;;9.07;3.50;;;18.20;99.90;;;;;;6158724;23;20063;-86
2023/08/27 10:15:40;;;;;;;8.18;3.60;;;18.20;99.90;;;;;;6134148;23;20009;-86
2023/08/27 10:18:13;;;;;;;10.05;3.63;;;18.20;99.90;;;;;;6133823;23;20060;-86
2023/08/27 10:20:41;;;;;;;7.63;3.33;;;18.20;99.90;;;;;;6134314;23;20371;-86
2023/08/27 10:23:10;;;;;;;9.05;3.03;;;18.20;99.90;;;;;;6158774;23;20088;-86
2023/08/27 10:25:37;;;;;;;9.10;3.58;;;18.10;99.90;;;;;;6157917;23;20095;-86
2023/08/27 10:28:04;;;;;;;7.68;2.53;;;18.30;99.90;;;;;;6133713;23;20458;-86
2023/08/27 10:30:31;;;;;;;9.35;3.33;;;18.60;99.90;;;;;;6158924;23;20013;-86
2023/08/27 10:32:57;;;;;;;7.20;2.70;;;18.70;99.90;;;;;;6133693;23;20016;-86
2023/08/27 10:35:23;;;;;;;9.70;3.22;;;18.80;99.90;;;;;;6158620;23;20324;-86
2023/08/27 10:37:53;;;;;;;7.97;2.90;;;18.80;99.90;;;;;;6133341;23;20097;-86
2023/08/27 10:40:20;;;;;;;6.95;2.67;;;19.00;99.90;;;;;;6158504;23;20017;-86
2023/08/27 10:42:45;;;;;;;6.07;2.38;;;18.90;99.90;;;;;;6134090;23;20025;-86
2023/08/27 10:45:15;;;;;;;8.23;2.60;;;18.80;99.90;;;;;;6158333;23;20017;-86
2023/08/27 10:47:42;;;;;;;8.38;2.92;;;18.80;99.90;;;;;;6157970;23;20028;-86
2023/08/27 10:50:10;;;;;;;7.13;3.00;;;18.80;99.90;;;;;;6133763;23;20059;-86
2023/08/27 10:52:49;;;;;;;7.15;2.78;;;18.90;99.90;;;;;;6133697;23;20103;-86
2023/08/27 10:55:19;;;;;;;6.63;2.42;;;19.00;99.90;;;;;;6157974;23;20083;-86
2023/08/27 10:57:45;;;;;;;7.00;2.70;;;19.10;99.90;;;;;;6133219;23;20016;-86
2023/08/27 11:00:12;;;;;;;7.68;2.55;;;19.20;99.90;;;;;;6133271;23;20008;-86
2023/08/27 11:02:57;;;;;;;6.75;2.78;;;19.20;99.90;;;;;;6133858;23;20031;-86
2023/08/27 11:05:29;;;;;;;7.25;2.60;;;19.40;99.90;;;;;;6133121;23;20016;-86
2023/08/27 11:07:59;;;;;;;7.40;2.03;;;19.50;99.90;;;;;;6157927;23;20079;-87
2023/08/27 11:10:31;;;;;;;6.97;2.95;;;19.40;99.90;;;;;;6158060;23;20021;-87
2023/08/27 11:13:00;;;;;;;9.07;3.20;;;19.40;99.90;;;;;;6133690;23;20005;-86
2023/08/27 11:15:32;;;;;;;6.32;2.70;;;19.40;99.90;;;;;;6158341;23;20067;-86
2023/08/27 11:18:01;;;;;;;8.77;3.15;;;19.50;99.90;;;;;;6133266;23;20020;-87
2023/08/27 11:20:28;;;;;;;8.07;3.03;;;19.50;99.90;;;;;;6157977;23;20016;-86
2023/08/27 11:22:58;;;;;;;7.05;2.53;;;19.50;99.90;;;;;;6157971;23;20009;-86
2023/08/27 11:25:26;;;;;;;5.05;2.22;;;19.60;99.90;;;;;;6133555;23;20087;-86
2023/08/27 11:27:52;;;;;;;6.32;2.53;;;19.60;99.90;;;;;;6132856;23;20016;-86
2023/08/27 11:30:18;;;;;;;6.57;2.88;;;19.50;99.90;;;;;;6157977;23;20013;-86
2023/08/27 11:32:44;;;;;;;7.80;2.80;;;19.50;99.90;;;;;;6158065;23;20060;-86
2023/08/27 11:35:14;;;;;;;9.50;2.63;;;19.50;99.90;;;;;;6133647;23;20005;-86
2023/08/27 11:37:39;;;;;;;7.47;2.47;;;19.60;99.90;;;;;;6132630;23;20355;-86
2023/08/27 11:40:15;;;;;;;6.95;2.53;;;19.50;99.90;;;;;;6132965;23;20013;-86
2023/08/27 11:42:51;;;;;;;6.93;2.13;;;19.50;99.90;;;;;;6133043;23;20012;-86
2023/08/27 11:45:17;;;;;;;7.78;2.22;;;19.50;99.90;;;;;;6157230;23;20009;-87
2023/08/27 11:47:45;;;;;;;6.90;2.45;;;19.50;99.90;;;;;;6157208;23;20013;-87
2023/08/27 11:50:13;;;;;;;7.25;2.25;;;19.40;99.90;;;;;;6157924;23;20009;-86
2023/08/27 11:52:39;;;;;;;8.02;2.47;;;19.40;99.90;;;;;;6133090;23;20009;-86
2023/08/27 11:55:06;;;;;;;7.75;2.30;;;19.30;99.90;;;;;;6133094;23;20071;-86
2023/08/27 11:57:33;;;;;;;6.93;2.47;;;19.30;99.90;;;;;;6132813;23;20414;-86
2023/08/27 12:00:07;;;;;;;7.05;2.22;;;19.10;99.90;;;;;;6157423;23;20009;-87
2023/08/27 12:02:33;;;;;;;6.50;1.90;;;19.10;99.90;;;;;;6157383;23;20045;-87
2023/08/27 12:04:59;;;;;;;6.97;2.10;;;19.00;99.90;;;;;;6158222;23;20013;-87
2023/08/27 12:07:28;;;;;;;6.22;1.83;;;18.90;99.90;;;;;;6132212;23;20024;-87
2023/08/27 12:09:53;;;;;;;5.43;1.80;;;18.80;99.90;;;;;;6157172;23;20012;-87
2023/08/27 12:12:24;;;;;;;6.80;2.20;;;18.80;99.90;;;;;;6156866;23;20091;-86
2023/08/27 12:14:52;;;;;;;5.65;1.58;;;18.70;99.90;;;;;;6157140;23;20013;-86
2023/08/27 12:17:20;;;;;;;8.88;2.35;;;18.50;99.90;;;;;;6157151;23;20019;-86
2023/08/27 12:19:47;;;;;;;6.90;2.22;;;18.50;99.90;;;;;;6156951;23;20032;-87
2023/08/27 12:22:17;;;;;;;10.27;3.13;;;18.40;99.90;;;;;;6156279;23;20484;-86
2023/08/27 12:24:44;;;;;;;7.75;4.38;;;18.20;99.90;;;;;;6132662;23;20009;-86
2023/08/27 12:27:14;;;;;;;9.07;5.32;;;18.00;99.90;;;;;;6156221;23;20020;-86
2023/08/27 12:29:42;;;;;;;8.15;3.85;;;17.90;99.90;;;;;;6156923;23;20059;-86
2023/08/27 12:32:13;;;;;;;11.02;5.05;;;17.70;99.90;;;;;;6157727;23;20038;-86
2023/08/27 12:34:44;;;;;;;10.52;7.05;;;17.70;99.90;;;;;;6183356;23;20051;-86
2023/08/27 12:37:11;;;;;;;9.82;7.90;;;17.60;99.90;;;;;;6156721;23;20024;-86
2023/08/27 12:39:38;;;;;;;11.75;7.68;;;17.60;99.90;;;;;;6132299;23;20342;-86
2023/08/27 12:42:05;;;;;;;11.35;8.30;;;17.60;99.90;;;;;;6157436;23;20017;-86
2023/08/27 12:44:32;;;;;;;8.35;3.97;;;17.60;99.90;;;;;;6183874;23;20350;-86